FLIGHT INFORMATION
Air New Zealand

ANZ9000

At Arrival Gate

LIRF
 OMDB
DATE: 2020-06-03
GATE:  -
GATE DEPARTURE: 07:06
TAKEOFF: 07:19
DATE: 2020-06-03
GATE:  -
LANDING: 12:22
GATE ARRIVAL: 12:27
FLIGHT DATA
Crew: MARK ADEANE
Speed: 521 kts Altitude: 43000 ft
Stage Length: 2345 nm
Route: LIRF RF601 RF603 SOSAK TORLI KONUT PEPIX UNIXO CRN ADREN TOMGI RUTOM LASKO KFN TRL EKTOS ALANI MIL NETIS PEXAN MADEX UVRIT ASTIS ADESO GILOS ETERU VANES RDS LAKAD EXELA EVENO BALMA CAK LATEB LOTAX BASEM ABBAS SULAF TAN MODIK RAPLU PUSTO SILBO LOVEK KODAV ILMAP SIDAD DESLU NANPI ALNIN IMDAT DURSI PEGET EGMIT LEVNA ORSAR GIBIB EMOTA TATLA VUTEB OMDB
Block Time: 5.4 Flight Time: 5.1
Fuel Used: 96959 LB
TRACK DATA
50000 FT1000 KTAltitudeSpeed
AIRCRAFT INFORMATION
Aircraft Type: B744
Registration: ZK-NBS
SELCAL: JQEL MSN/LN: 24386 / 756
Operator: AIR NEW ZEALAND
Flights: 4 Block Time: 30 Flight Time: 29
Fuel Used: 526220 LB
  • DEPARTURE INFORMATION
    Date: 2020-06-03
    Airport: LIRF
    Gate:  -
    Gate Departure: 07:06
    Takeoff: 07:19
    ARRIVAL INFORMATION
    Date: 2020-06-03
    Airport: OMDB
    Gate:  -
    Landing: 12:22
    Gate Arrival: 12:27
  • FLIGHT DATA
    Crew: MARK ADEANE
    Speed: 521 kts Altitude: 43000 ft
    Stage Length: 1266 nm
    Route: LIRF RF601 RF603 SOSAK TORLI KONUT PEPIX UNIXO CRN ADREN TOMGI RUTOM LASKO KFN TRL EKTOS ALANI MIL NETIS PEXAN MADEX UVRIT ASTIS ADESO GILOS ETERU VANES RDS LAKAD EXELA EVENO BALMA CAK LATEB LOTAX BASEM ABBAS SULAF TAN MODIK RAPLU PUSTO SILBO LOVEK KODAV ILMAP SIDAD DESLU NANPI ALNIN IMDAT DURSI PEGET EGMIT LEVNA ORSAR GIBIB EMOTA TATLA VUTEB OMDB
    Block Time: 5.4 Flight Time: 5.1
    Fuel Used: 96959 LB
  • AIRCRAFT INFORMATION
    Aircraft Type: B744
    Registration: ZK-NBS
    SELCAL: JQEL MSN/LN: 24386 / 756
    Operator: Air New Zealand
    Flights: 4 Block Time: 30 Flight Time: 29
    Fuel Used: 526220 LB

DATALINK LOG | Newest first | Current as of: 2020-08-11 10:53:05
LABEL SEQUENCE CONTENT Dn/Up
QD272312:27 46.2▼ Dn
QC212012:22▼ Dn
2U4115OMDB 040900Z 28012KT 250V310 CAVOK 38/25 Q1001 NOSIG▲ Up
2S3838OMDB▼ Dn
2U1450OMDB 040200Z 19005KT CAVOK 31/18 Q1000 NOSIG▲ Up
2S4232OMDB▼ Dn
GA4230ADVANCED GATE ASSIGNMENTS NOT YET AVAILABLE AT THIS AIRPORT▲ Up
GR4230OMDB 12:10 HI-VAL NO DIPL/VIP NO▼ Dn
2U0150OMDB 040100Z 21006KT CAVOK 31/18 Q1000 NOSIG▲ Up
2S2922OMDB▼ Dn
5R1405CAK 09:44z FL390 LATEB 09:48z LOTAX M0.85 40.3 -22 223/81 RW12R 12:24z▼ Dn
GA0053ADVANCED GATE ASSIGNMENTS NOT YET AVAILABLE AT THIS AIRPORT▲ Up
GR0053OMDB 12:27 HI-VAL NO DIPL/VIP NO▼ Dn
5Z00522 JUN 20 09:31:36z / FLT DECK GOOD / ACF POS GOOD / GRND SERVICES GOOD / MAINT GOOD▼ Dn
QB474407:19▼ Dn
QA343207:06 143.2▼ Dn
A32624NO MATCHING FLIGHT DATA AVAILABLE FROM ANSP▲ Up
B32624LIRF OMDB ANZ9000 ZKNBS C ▼ Dn
Q02119[LINK ACK]▲ Up
Q02119[LINK TEST]▼ Dn


AIRCRAFT HISTORY
FLIGHT DATE FLIGHT NO. ORIGIN DESTINATION ROUTE BLOCK TIME FLIGHT TIME FUEL USED (LB) PILOT
2020-06-07ANZ9001OMDB NZCH OMDB DB570 DB586 DB587 DB588 DB589 DB571 DB572 ULADO RAPMO LOPUV ANVIX PEDUL KIPOK TARDI NOSMI BOTAM ELIVA MUSUK IVAKU GEPOT GIDAN TOLDA EMURU GOLBA GADMA LOTAV KADOL LEMAX MESAN NITIX OSIRI VASTU AKLON CIA GUTEG BIKOK CM KAT CL HAMBA HE EGODU EKASU BASEV ELATI MUTMI TATOD MALBI TANEM DECEM TIMET PD KADUN NONAX WENER PUGUT VIRUV CARTS LEC SAPED NEWMO PKS KADOM TESAT CAWLY PLUGA BOKED SULON VANDA BELEE AVOCA BISUP CH426 CHARR IDUBU RW0215.715.3321615Mark Adeane
2020-06-03ANZ9000LIRF OMDB LIRF RF601 RF603 SOSAK TORLI KONUT PEPIX UNIXO CRN ADREN TOMGI RUTOM LASKO KFN TRL EKTOS ALANI MIL NETIS PEXAN MADEX UVRIT ASTIS ADESO GILOS ETERU VANES RDS LAKAD EXELA EVENO BALMA CAK LATEB LOTAX BASEM ABBAS SULAF TAN MODIK RAPLU PUSTO SILBO LOVEK KODAV ILMAP SIDAD DESLU NANPI ALNIN IMDAT DURSI PEGET EGMIT LEVNA ORSAR GIBIB EMOTA TATLA VUTEB OMDB5.45.196959Mark Adeane
2018-08-30ANZ1ESSA LIRF 3.42.964967Matthew Gales
2018-08-29ANZ66EGLL ESSA 2.11.942678Matthew Gales